A- A+ FrançaisEnglishEspañol中国

le plus proche LFBO Toulouse-BlagnacLFBT Tarbes-Lourdes-PyrénéesLFFK Fontenay-Le-ComteLFHU L'alpe-D'huez

manche à air

La météo aéronautique pour les pilotes, la préparation du vol avec les METAR (METeorological Aerodrome Report, message d'observation des conditions météorologiques pour l'aviation) et Les TAF (Terminal Aerodrome Forecast : message de prévision à court terme des conditions météorologiques pour l'aviation). Et les autres ressources comme les VAC (Visual Approch Chart) et les NOTAM (Notice To Airman) pour préprer les vols.

Aéroport Dease Lake (Canada) / OACI CYDL/ IATA YDL

L'altitude de l'aéroport Dease Lake est de 792 m=2598 ft. Il est situé à proximité de Dease Lake (Canada). La météo générale à 5 jours est disponible pour Dease Lake situé à 3 km.

METAR de l'aéroport Dease Lake - CYDL

CYDL 022000Z AUTO 00000KT 9SM CLR M15/M17 A2975 RMK SLP121

Décodage du METAR de l'aéroport Dease Lake (CA)

METAR émis par CYDL le jeudi 2 janvier 2020 à 20:00 heure TU. C'est un METAR généré automatiquement. Attention ce METAR est obsolète car il a été émis il y a 11 heure et 33 minutes.

La visibilité est de 14.5 km=9 sm.

La température est de -15°C=5 °F et le point rosée est de -17°C=1 °F . Ce qui correspond à 85% d'humidité relative.

Le QNH est de 1007 hPa=29.74 inHg

Vent de 0 kt=0 km/h, orienté à 0°.

Pas de nuages.

RMK SLP121

TAF de l'aéroport Dease Lake - CYDL

CYDL 021738Z 0218/0303 VRB03KT P6SM SKC FM030000 VRB03KT P6SM FEW100 SCT200 RMK FCST BASED ON AUTO OBS. NXT FCST BY 030000Z

CYDL 021738Z 0218/0303 VRB03KT P6SM ciel dégagé FM030000 VRB03KT P6SM quelques nuages à 100 nuages épars à 200 remarques trombe ST BASED ON AUTO OBS. NXT trombe ST BY 030000Z

Aéroport à proximité de Dease Lake

Météo générale à 5 jours à Dease Lake (3 km)CYQH Aéroport Watson Lake (201 km)CYSQ Aéroport Atlin (245 km)CYZW Aéroport Teslin (248 km)PAPG Aéroport Johnson Peterburg (250 km)PAWG Aéroport Wrangell (257 km)PAJN Aéroport Juneau (265 km)

Vue aérienne de l'aéroport Dease Lake

NOTAM de l'aéroport Dease Lake

Les NOTAM sont fournis sans aucune garantie de leur actualité. Le pilote est le seul responsable de la vérification de sa validité avant de l'utiliser opérationnellement pour préparer un vol ou l'utiliser lors de sa navigation.

Pas de NOTAM

Sources des données